FDTM weather

Tambankulu Airport
Tambankulu, Lubombo, Swaziland

Public forecast

Using degrees Celsius for public forecast. Weather courtesy of forecast.io.

METAR (pilot weather report)

Report is more than 6 hours old.

Closest report is Simunye Airport, 6.3 nm (11.6 km) SSW. Retrieved 2015/11/05 12:00 UTC (4 years ago):

FDSM 051200Z 08009KT CAVOK 26/07 Q1025 NOSIG

TAF (pilot weather forecast)

Closest forecast is Maputo Airport, 34.4 nm (63.7 km) ENE. Retrieved 2019/09/21 06:00 UTC (2 hours ago):

TAF FQMA 210400Z 2106/2212 02010KT CAVOK TX34/2113Z TN20/2203Z BECMG 2110/2112 08010G20KT 9999 FEW025 BECMG 2118/2120 32012KT BECMG 2206/2208 02008KT BKN020